PWSweather.com
Personal Weather Stations
Station Observations

YeovilGB

Lat: 50.949, Lon: -2.627

Elevation: 70

Station Type: Vantage Pro

http://www.yeovil-weather.me.uk/

High Low Average
Temperature 29.7°F-1.3°C 22.8°F-5.1°C 26.0°F-3.3°C
Dew Point 28.2°F-2.1°C 18.1°F-7.7°C 22.7°F-5.2°C
Winds 10.4 mph 16.7 kmh 1.2 mph 1.9 kmh 5.0 mph NE8.0 kmh NE
Wind Gusts 23.0 mph37.0 kmh 4.6 mph7.4 kmh 11.0 mph17.7 kmh
Humidity 95% 80% 87%
Pressure 29.77 in1008.1 mb 29.23 in989.8 mb -
Precipitation 0.00 in0.0 mm - -
Hour Temp Dew Point Humidity Winds Wind Gusts Pressure Precip Precip Rate Daily Precip Total
12:00 AM 22.8°F-5.1°C 18.1°F-7.7°C 82% 5.8 mph NNE9.3 kmh NNE 10.4 mph16.7 kmh 29.77 in1008.1 mb - 0.00 in0.0 mm 0.00 in0.0 mm
12:10 AM 22.8°F-5.1°C 18.1°F-7.7°C 82% 8.1 mph N13.0 kmh N 13.8 mph22.2 kmh 29.76 in1007.8 mb - 0.00 in0.0 mm 0.00 in0.0 mm
12:20 AM 22.9°F-5.1°C 18.2°F-7.7°C 82% 5.8 mph NNE9.3 kmh NNE 12.7 mph20.4 kmh 29.76 in1007.8 mb - 0.00 in0.0 mm 0.00 in0.0 mm
12:30 AM 23.0°F-5.0°C 18.3°F-7.6°C 82% 6.9 mph NNE11.1 kmh NNE 9.2 mph14.8 kmh 29.76 in1007.8 mb - 0.00 in0.0 mm 0.00 in0.0 mm
12:40 AM 23.1°F-4.9°C 18.5°F-7.5°C 82% 4.6 mph NNE7.4 kmh NNE 6.9 mph11.1 kmh 29.75 in1007.5 mb - 0.00 in0.0 mm 0.00 in0.0 mm
12:50 AM 23.3°F-4.8°C 18.6°F-7.4°C 82% 5.8 mph NNE9.3 kmh NNE 12.7 mph20.4 kmh 29.75 in1007.5 mb - 0.00 in0.0 mm 0.00 in0.0 mm
01:00 AM 23.4°F-4.8°C 18.7°F-7.4°C 82% 4.6 mph N7.4 kmh N 9.2 mph14.8 kmh 29.74 in1007.1 mb - 0.00 in0.0 mm 0.00 in0.0 mm
01:10 AM 23.4°F-4.8°C 19.0°F-7.2°C 83% 3.5 mph NNE5.6 kmh NNE 11.5 mph18.5 kmh 29.74 in1007.1 mb - 0.00 in0.0 mm 0.00 in0.0 mm
01:20 AM 23.5°F-4.7°C 18.8°F-7.3°C 82% 4.6 mph NNE7.4 kmh NNE 9.2 mph14.8 kmh 29.73 in1006.8 mb - 0.00 in0.0 mm 0.00 in0.0 mm
01:30 AM 23.6°F-4.7°C 18.9°F-7.3°C 82% 6.9 mph NNE11.1 kmh NNE 6.9 mph11.1 kmh 29.73 in1006.8 mb - 0.00 in0.0 mm 0.00 in0.0 mm
01:40 AM 23.7°F-4.6°C 19.0°F-7.2°C 82% 8.1 mph NNE13.0 kmh NNE 16.1 mph25.9 kmh 29.73 in1006.8 mb - 0.00 in0.0 mm 0.00 in0.0 mm
01:50 AM 23.8°F-4.6°C 19.1°F-7.2°C 82% 6.9 mph NNE11.1 kmh NNE 15.0 mph24.1 kmh 29.72 in1006.4 mb - 0.00 in0.0 mm 0.00 in0.0 mm
02:00 AM 23.8°F-4.6°C 19.1°F-7.2°C 82% 6.9 mph NNE11.1 kmh NNE 12.7 mph20.4 kmh 29.71 in1006.1 mb - 0.00 in0.0 mm 0.00 in0.0 mm
02:10 AM 23.9°F-4.5°C 19.2°F-7.1°C 82% 6.9 mph NE11.1 kmh NE 10.4 mph16.7 kmh 29.71 in1006.1 mb - 0.00 in0.0 mm 0.00 in0.0 mm
02:20 AM 23.8°F-4.6°C 19.1°F-7.2°C 82% 5.8 mph NNE9.3 kmh NNE 8.1 mph13.0 kmh 29.70 in1005.8 mb - 0.00 in0.0 mm 0.00 in0.0 mm
02:30 AM 23.8°F-4.6°C 19.1°F-7.2°C 82% 6.9 mph NE11.1 kmh NE 11.5 mph18.5 kmh 29.69 in1005.4 mb - 0.00 in0.0 mm 0.00 in0.0 mm
02:40 AM 23.9°F-4.5°C 19.2°F-7.1°C 82% 6.9 mph NE11.1 kmh NE 11.5 mph18.5 kmh 29.69 in1005.4 mb - 0.00 in0.0 mm 0.00 in0.0 mm
02:50 AM 23.9°F-4.5°C 18.9°F-7.3°C 81% 8.1 mph NNE13.0 kmh NNE 11.5 mph18.5 kmh 29.68 in1005.1 mb - 0.00 in0.0 mm 0.00 in0.0 mm
03:00 AM 23.9°F-4.5°C 18.9°F-7.3°C 81% 5.8 mph NE9.3 kmh NE 10.4 mph16.7 kmh 29.68 in1005.1 mb - 0.00 in0.0 mm 0.00 in0.0 mm
03:10 AM 24.0°F-4.4°C 19.0°F-7.2°C 81% 3.5 mph NE5.6 kmh NE 9.2 mph14.8 kmh 29.68 in1005.1 mb - 0.00 in0.0 mm 0.00 in0.0 mm
03:20 AM 24.0°F-4.4°C 19.0°F-7.2°C 81% 3.5 mph NNE5.6 kmh NNE 16.1 mph25.9 kmh 29.67 in1004.7 mb - 0.00 in0.0 mm 0.00 in0.0 mm
03:30 AM 24.0°F-4.4°C 19.0°F-7.2°C 81% 5.8 mph NE9.3 kmh NE 11.5 mph18.5 kmh 29.66 in1004.4 mb - 0.00 in0.0 mm 0.00 in0.0 mm
03:40 AM 24.0°F-4.4°C 19.0°F-7.2°C 81% 3.5 mph NNE5.6 kmh NNE 8.1 mph13.0 kmh 29.66 in1004.4 mb - 0.00 in0.0 mm 0.00 in0.0 mm
03:50 AM 24.1°F-4.4°C 19.1°F-7.2°C 81% 3.5 mph NNE5.6 kmh NNE 6.9 mph11.1 kmh 29.65 in1004.1 mb - 0.00 in0.0 mm 0.00 in0.0 mm
04:00 AM 24.1°F-4.4°C 19.1°F-7.2°C 81% 6.9 mph NNE11.1 kmh NNE 13.8 mph22.2 kmh 29.64 in1003.7 mb - 0.00 in0.0 mm 0.00 in0.0 mm
04:10 AM 24.1°F-4.4°C 18.8°F-7.3°C 80% 5.8 mph NNE9.3 kmh NNE 12.7 mph20.4 kmh 29.64 in1003.7 mb - 0.00 in0.0 mm 0.00 in0.0 mm
04:20 AM 24.1°F-4.4°C 18.8°F-7.3°C 80% 6.9 mph NE11.1 kmh NE 12.7 mph20.4 kmh 29.64 in1003.7 mb - 0.00 in0.0 mm 0.00 in0.0 mm
04:30 AM 24.1°F-4.4°C 18.8°F-7.3°C 80% 5.8 mph NNE9.3 kmh NNE 13.8 mph22.2 kmh 29.63 in1003.4 mb - 0.00 in0.0 mm 0.00 in0.0 mm
04:40 AM 24.1°F-4.4°C 18.8°F-7.3°C 80% 9.2 mph NE14.8 kmh NE 11.5 mph18.5 kmh 29.62 in1003.0 mb - 0.00 in0.0 mm 0.00 in0.0 mm
04:50 AM 24.1°F-4.4°C 18.8°F-7.3°C 80% 4.6 mph NE7.4 kmh NE 10.4 mph16.7 kmh 29.62 in1003.0 mb - 0.00 in0.0 mm 0.00 in0.0 mm
05:00 AM 24.1°F-4.4°C 18.8°F-7.3°C 80% 5.8 mph NE9.3 kmh NE 11.5 mph18.5 kmh 29.61 in1002.7 mb - 0.00 in0.0 mm 0.00 in0.0 mm
05:10 AM 24.1°F-4.4°C 18.8°F-7.3°C 80% 5.8 mph NE9.3 kmh NE 11.5 mph18.5 kmh 29.61 in1002.7 mb - 0.00 in0.0 mm 0.00 in0.0 mm
05:20 AM 24.1°F-4.4°C 18.8°F-7.3°C 80% 6.9 mph NNE11.1 kmh NNE 18.4 mph29.6 kmh 29.60 in1002.4 mb - 0.00 in0.0 mm 0.00 in0.0 mm
05:30 AM 24.2°F-4.3°C 18.9°F-7.3°C 80% 8.1 mph NNE13.0 kmh NNE 18.4 mph29.6 kmh 29.60 in1002.4 mb - 0.00 in0.0 mm 0.00 in0.0 mm
05:40 AM 24.1°F-4.4°C 19.2°F-7.1°C 81% 8.1 mph NNE13.0 kmh NNE 11.5 mph18.5 kmh 29.60 in1002.4 mb - 0.00 in0.0 mm 0.00 in0.0 mm
05:50 AM 24.0°F-4.4°C 19.6°F-6.9°C 83% 8.1 mph NE13.0 kmh NE 18.4 mph29.6 kmh 29.60 in1002.4 mb - 0.00 in0.0 mm 0.00 in0.0 mm
06:00 AM 23.9°F-4.5°C 19.5°F-6.9°C 83% 5.8 mph NE9.3 kmh NE 10.4 mph16.7 kmh 29.59 in1002.0 mb - 0.00 in0.0 mm 0.00 in0.0 mm
06:10 AM 23.9°F-4.5°C 19.7°F-6.8°C 84% 5.8 mph NNE9.3 kmh NNE 12.7 mph20.4 kmh 29.59 in1002.0 mb - 0.00 in0.0 mm 0.00 in0.0 mm
06:20 AM 23.9°F-4.5°C 20.0°F-6.7°C 85% 5.8 mph NNE9.3 kmh NNE 9.2 mph14.8 kmh 29.59 in1002.0 mb - 0.00 in0.0 mm 0.00 in0.0 mm
06:30 AM 23.8°F-4.6°C 20.0°F-6.7°C 85% 3.5 mph NNE5.6 kmh NNE 18.4 mph29.6 kmh 29.58 in1001.7 mb - 0.00 in0.0 mm 0.00 in0.0 mm
06:40 AM 23.9°F-4.5°C 20.3°F-6.5°C 86% 4.6 mph NE7.4 kmh NE 8.1 mph13.0 kmh 29.58 in1001.7 mb - 0.00 in0.0 mm 0.00 in0.0 mm
06:50 AM 23.9°F-4.5°C 20.4°F-6.4°C 86% 5.8 mph NE9.3 kmh NE 9.2 mph14.8 kmh 29.58 in1001.7 mb - 0.00 in0.0 mm 0.00 in0.0 mm
07:00 AM 24.0°F-4.4°C 20.5°F-6.4°C 86% 3.5 mph NE5.6 kmh NE 11.5 mph18.5 kmh 29.58 in1001.7 mb - 0.00 in0.0 mm 0.00 in0.0 mm
07:10 AM 24.1°F-4.4°C 20.5°F-6.4°C 86% 4.6 mph NE7.4 kmh NE 8.1 mph13.0 kmh 29.58 in1001.7 mb - 0.00 in0.0 mm 0.00 in0.0 mm
07:20 AM 24.2°F-4.3°C 20.3°F-6.5°C 85% 5.8 mph NNE9.3 kmh NNE 11.5 mph18.5 kmh 29.57 in1001.4 mb - 0.00 in0.0 mm 0.00 in0.0 mm
07:30 AM 24.2°F-4.3°C 20.6°F-6.3°C 86% 5.8 mph NNE9.3 kmh NNE 11.5 mph18.5 kmh 29.57 in1001.4 mb - 0.00 in0.0 mm 0.00 in0.0 mm
07:40 AM 24.3°F-4.3°C 20.4°F-6.4°C 85% 5.8 mph NE9.3 kmh NE 9.2 mph14.8 kmh 29.57 in1001.4 mb - 0.00 in0.0 mm 0.00 in0.0 mm
07:50 AM 24.4°F-4.2°C 20.5°F-6.4°C 85% 3.5 mph NNE5.6 kmh NNE 8.1 mph13.0 kmh 29.56 in1001.0 mb - 0.00 in0.0 mm 0.00 in0.0 mm
08:00 AM 24.6°F-4.1°C 20.4°F-6.4°C 84% 2.3 mph NE3.7 kmh NE 5.8 mph9.3 kmh 29.56 in1001.0 mb - 0.00 in0.0 mm 0.00 in0.0 mm
08:10 AM 24.7°F-4.1°C 20.6°F-6.3°C 84% 6.9 mph NNE11.1 kmh NNE 10.4 mph16.7 kmh 29.55 in1000.7 mb - 0.00 in0.0 mm 0.00 in0.0 mm
08:20 AM 24.8°F-4.0°C 20.4°F-6.4°C 83% 3.5 mph NNE5.6 kmh NNE 6.9 mph11.1 kmh 29.55 in1000.7 mb - 0.00 in0.0 mm 0.00 in0.0 mm
08:30 AM 24.9°F-3.9°C 20.5°F-6.4°C 83% 4.6 mph NE7.4 kmh NE 6.9 mph11.1 kmh 29.55 in1000.7 mb - 0.00 in0.0 mm 0.00 in0.0 mm
08:40 AM 25.0°F-3.9°C 20.6°F-6.3°C 83% 5.8 mph NE9.3 kmh NE 12.7 mph20.4 kmh 29.54 in1000.3 mb - 0.00 in0.0 mm 0.00 in0.0 mm
08:50 AM 25.1°F-3.8°C 20.7°F-6.3°C 83% 4.6 mph NE7.4 kmh NE 11.5 mph18.5 kmh 29.54 in1000.3 mb - 0.00 in0.0 mm 0.00 in0.0 mm
09:00 AM 25.1°F-3.8°C 20.4°F-6.4°C 82% 6.9 mph NNE11.1 kmh NNE 13.8 mph22.2 kmh 29.54 in1000.3 mb - 0.00 in0.0 mm 0.00 in0.0 mm
09:10 AM 25.2°F-3.8°C 20.5°F-6.4°C 82% 2.3 mph NE3.7 kmh NE 4.6 mph7.4 kmh 29.53 in1000.0 mb - 0.00 in0.0 mm 0.00 in0.0 mm
09:20 AM 25.3°F-3.7°C 20.6°F-6.3°C 82% 8.1 mph NE13.0 kmh NE 13.8 mph22.2 kmh 29.52 in999.7 mb - 0.00 in0.0 mm 0.00 in0.0 mm
09:30 AM 25.3°F-3.7°C 20.6°F-6.3°C 82% 6.9 mph NE11.1 kmh NE 15.0 mph24.1 kmh 29.52 in999.7 mb - 0.00 in0.0 mm 0.00 in0.0 mm
09:40 AM 25.3°F-3.7°C 20.6°F-6.3°C 82% 6.9 mph NE11.1 kmh NE 11.5 mph18.5 kmh 29.52 in999.7 mb - 0.00 in0.0 mm 0.00 in0.0 mm
09:50 AM 25.4°F-3.7°C 20.7°F-6.3°C 82% 6.9 mph NE11.1 kmh NE 13.8 mph22.2 kmh 29.51 in999.3 mb - 0.00 in0.0 mm 0.00 in0.0 mm
10:00 AM 25.5°F-3.6°C 20.8°F-6.2°C 82% 6.9 mph ENE11.1 kmh ENE 15.0 mph24.1 kmh 29.50 in999.0 mb - 0.00 in0.0 mm 0.00 in0.0 mm
10:10 AM 25.5°F-3.6°C 20.8°F-6.2°C 82% 2.3 mph NE3.7 kmh NE 15.0 mph24.1 kmh 29.50 in999.0 mb - 0.00 in0.0 mm 0.00 in0.0 mm
10:20 AM 25.6°F-3.6°C 20.9°F-6.2°C 82% 8.1 mph NE13.0 kmh NE 11.5 mph18.5 kmh 29.50 in999.0 mb - 0.00 in0.0 mm 0.00 in0.0 mm
10:30 AM 25.6°F-3.6°C 20.9°F-6.2°C 82% 9.2 mph NE14.8 kmh NE 13.8 mph22.2 kmh 29.50 in999.0 mb - 0.00 in0.0 mm 0.00 in0.0 mm
10:40 AM 25.7°F-3.5°C 20.7°F-6.3°C 81% 3.5 mph NE5.6 kmh NE 11.5 mph18.5 kmh 29.50 in999.0 mb - 0.00 in0.0 mm 0.00 in0.0 mm
10:50 AM 25.9°F-3.4°C 20.8°F-6.2°C 81% 10.4 mph NE16.7 kmh NE 19.6 mph31.5 kmh 29.50 in999.0 mb - 0.00 in0.0 mm 0.00 in0.0 mm
11:00 AM 26.0°F-3.3°C 21.0°F-6.1°C 81% 3.5 mph NE5.6 kmh NE 9.2 mph14.8 kmh 29.50 in999.0 mb - 0.00 in0.0 mm 0.00 in0.0 mm
11:10 AM 26.0°F-3.3°C 21.3°F-5.9°C 82% 4.6 mph NNE7.4 kmh NNE 9.2 mph14.8 kmh 29.50 in999.0 mb - 0.00 in0.0 mm 0.00 in0.0 mm
11:20 AM 26.0°F-3.3°C 21.0°F-6.1°C 81% 5.8 mph ENE9.3 kmh ENE 8.1 mph13.0 kmh 29.49 in998.6 mb - 0.00 in0.0 mm 0.00 in0.0 mm
11:30 AM 26.0°F-3.3°C 21.3°F-5.9°C 82% 4.6 mph NE7.4 kmh NE 11.5 mph18.5 kmh 29.48 in998.3 mb - 0.00 in0.0 mm 0.00 in0.0 mm
11:40 AM 26.1°F-3.3°C 21.4°F-5.9°C 82% 8.1 mph NE13.0 kmh NE 13.8 mph22.2 kmh 29.48 in998.3 mb - 0.00 in0.0 mm 0.00 in0.0 mm
11:50 AM 26.1°F-3.3°C 21.4°F-5.9°C 82% 9.2 mph NNE14.8 kmh NNE 19.6 mph31.5 kmh 29.47 in998.0 mb - 0.00 in0.0 mm 0.00 in0.0 mm
12:00 PM 26.2°F-3.2°C 21.5°F-5.8°C 82% 4.6 mph NNE7.4 kmh NNE 10.4 mph16.7 kmh 29.47 in998.0 mb - 0.00 in0.0 mm 0.00 in0.0 mm
12:10 PM 26.3°F-3.2°C 21.8°F-5.7°C 83% 3.5 mph NE5.6 kmh NE 10.4 mph16.7 kmh 29.46 in997.6 mb - 0.00 in0.0 mm 0.00 in0.0 mm
12:20 PM 26.4°F-3.1°C 21.9°F-5.6°C 83% 5.8 mph NE9.3 kmh NE 11.5 mph18.5 kmh 29.46 in997.6 mb - 0.00 in0.0 mm 0.00 in0.0 mm
12:30 PM 26.4°F-3.1°C 22.3°F-5.4°C 84% 3.5 mph NE5.6 kmh NE 8.1 mph13.0 kmh 29.45 in997.3 mb - 0.00 in0.0 mm 0.00 in0.0 mm
12:40 PM 26.6°F-3.0°C 22.7°F-5.2°C 85% 5.8 mph NE9.3 kmh NE 9.2 mph14.8 kmh 29.45 in997.3 mb - 0.00 in0.0 mm 0.00 in0.0 mm
12:50 PM 26.7°F-2.9°C 23.1°F-4.9°C 86% 3.5 mph NE5.6 kmh NE 11.5 mph18.5 kmh 29.44 in997.0 mb - 0.00 in0.0 mm 0.00 in0.0 mm
01:00 PM 26.7°F-2.9°C 23.1°F-4.9°C 86% 5.8 mph NE9.3 kmh NE 15.0 mph24.1 kmh 29.44 in997.0 mb - 0.00 in0.0 mm 0.00 in0.0 mm
01:10 PM 26.9°F-2.8°C 23.5°F-4.7°C 87% 4.6 mph NE7.4 kmh NE 10.4 mph16.7 kmh 29.43 in996.6 mb - 0.00 in0.0 mm 0.00 in0.0 mm
01:20 PM 27.1°F-2.7°C 23.7°F-4.6°C 87% 4.6 mph NNE7.4 kmh NNE 12.7 mph20.4 kmh 29.42 in996.3 mb - 0.00 in0.0 mm 0.00 in0.0 mm
01:30 PM 27.2°F-2.7°C 24.1°F-4.4°C 88% 4.6 mph NNE7.4 kmh NNE 8.1 mph13.0 kmh 29.41 in995.9 mb - 0.00 in0.0 mm 0.00 in0.0 mm
01:40 PM 27.3°F-2.6°C 24.2°F-4.3°C 88% 3.5 mph NNE5.6 kmh NNE 10.4 mph16.7 kmh 29.41 in995.9 mb - 0.00 in0.0 mm 0.00 in0.0 mm
01:50 PM 27.4°F-2.6°C 24.3°F-4.3°C 88% 3.5 mph NNE5.6 kmh NNE 10.4 mph16.7 kmh 29.40 in995.6 mb - 0.00 in0.0 mm 0.00 in0.0 mm
02:00 PM 27.3°F-2.6°C 24.5°F-4.2°C 89% 6.9 mph N11.1 kmh N 11.5 mph18.5 kmh 29.40 in995.6 mb - 0.00 in0.0 mm 0.00 in0.0 mm
02:10 PM 27.3°F-2.6°C 24.5°F-4.2°C 89% 4.6 mph NE7.4 kmh NE 8.1 mph13.0 kmh 29.39 in995.3 mb - 0.00 in0.0 mm 0.00 in0.0 mm
02:20 PM 27.2°F-2.7°C 24.7°F-4.1°C 90% 6.9 mph NE11.1 kmh NE 11.5 mph18.5 kmh 29.38 in994.9 mb - 0.00 in0.0 mm 0.00 in0.0 mm
02:30 PM 27.1°F-2.7°C 24.6°F-4.1°C 90% 5.8 mph NNE9.3 kmh NNE 11.5 mph18.5 kmh 29.38 in994.9 mb - 0.00 in0.0 mm 0.00 in0.0 mm
02:40 PM 27.0°F-2.8°C 24.5°F-4.2°C 90% 6.9 mph NE11.1 kmh NE 11.5 mph18.5 kmh 29.37 in994.6 mb - 0.00 in0.0 mm 0.00 in0.0 mm
02:50 PM 27.0°F-2.8°C 24.7°F-4.1°C 91% 3.5 mph NNE5.6 kmh NNE 8.1 mph13.0 kmh 29.37 in994.6 mb - 0.00 in0.0 mm 0.00 in0.0 mm
03:00 PM 27.0°F-2.8°C 24.7°F-4.1°C 91% 6.9 mph NE11.1 kmh NE 10.4 mph16.7 kmh 29.36 in994.2 mb - 0.00 in0.0 mm 0.00 in0.0 mm
03:10 PM 27.0°F-2.8°C 24.7°F-4.1°C 91% 5.8 mph NNE9.3 kmh NNE 9.2 mph14.8 kmh 29.36 in994.2 mb - 0.00 in0.0 mm 0.00 in0.0 mm
03:20 PM 27.0°F-2.8°C 25.0°F-3.9°C 92% 5.8 mph NE9.3 kmh NE 12.7 mph20.4 kmh 29.35 in993.9 mb - 0.00 in0.0 mm 0.00 in0.0 mm
03:30 PM 27.0°F-2.8°C 25.0°F-3.9°C 92% 3.5 mph NNE5.6 kmh NNE 5.8 mph9.3 kmh 29.35 in993.9 mb - 0.00 in0.0 mm 0.00 in0.0 mm
03:40 PM 27.0°F-2.8°C 25.0°F-3.9°C 92% 5.8 mph NE9.3 kmh NE 12.7 mph20.4 kmh 29.34 in993.6 mb - 0.00 in0.0 mm 0.00 in0.0 mm
03:50 PM 27.0°F-2.8°C 25.0°F-3.9°C 92% 4.6 mph NE7.4 kmh NE 10.4 mph16.7 kmh 29.34 in993.6 mb - 0.00 in0.0 mm 0.00 in0.0 mm
04:00 PM 27.0°F-2.8°C 25.0°F-3.9°C 92% 5.8 mph NNE9.3 kmh NNE 9.2 mph14.8 kmh 29.34 in993.6 mb - 0.00 in0.0 mm 0.00 in0.0 mm
04:10 PM 27.0°F-2.8°C 25.0°F-3.9°C 92% 2.3 mph NE3.7 kmh NE 9.2 mph14.8 kmh 29.33 in993.2 mb - 0.00 in0.0 mm 0.00 in0.0 mm
04:20 PM 27.0°F-2.8°C 25.0°F-3.9°C 92% 5.8 mph NE9.3 kmh NE 10.4 mph16.7 kmh 29.33 in993.2 mb - 0.00 in0.0 mm 0.00 in0.0 mm
04:30 PM 27.0°F-2.8°C 25.2°F-3.8°C 93% 4.6 mph N7.4 kmh N 10.4 mph16.7 kmh 29.33 in993.2 mb - 0.00 in0.0 mm 0.00 in0.0 mm
04:40 PM 27.0°F-2.8°C 25.2°F-3.8°C 93% 3.5 mph NNE5.6 kmh NNE 9.2 mph14.8 kmh 29.32 in992.9 mb - 0.00 in0.0 mm 0.00 in0.0 mm
04:50 PM 27.0°F-2.8°C 25.2°F-3.8°C 93% 4.6 mph NNE7.4 kmh NNE 9.2 mph14.8 kmh 29.32 in992.9 mb - 0.00 in0.0 mm 0.00 in0.0 mm
05:00 PM 27.0°F-2.8°C 25.2°F-3.8°C 93% 2.3 mph ENE3.7 kmh ENE 10.4 mph16.7 kmh 29.32 in992.9 mb - 0.00 in0.0 mm 0.00 in0.0 mm
05:10 PM 27.1°F-2.7°C 25.3°F-3.7°C 93% 6.9 mph NE11.1 kmh NE 13.8 mph22.2 kmh 29.32 in992.9 mb - 0.00 in0.0 mm 0.00 in0.0 mm
05:20 PM 27.1°F-2.7°C 25.3°F-3.7°C 93% 1.2 mph NE1.9 kmh NE 6.9 mph11.1 kmh 29.32 in992.9 mb - 0.00 in0.0 mm 0.00 in0.0 mm
05:30 PM 27.1°F-2.7°C 25.6°F-3.6°C 94% 4.6 mph NE7.4 kmh NE 6.9 mph11.1 kmh 29.31 in992.6 mb - 0.00 in0.0 mm 0.00 in0.0 mm
05:40 PM 27.2°F-2.7°C 25.7°F-3.5°C 94% 2.3 mph NE3.7 kmh NE 5.8 mph9.3 kmh 29.31 in992.6 mb - 0.00 in0.0 mm 0.00 in0.0 mm
05:50 PM 27.2°F-2.7°C 25.7°F-3.5°C 94% 3.5 mph NE5.6 kmh NE 11.5 mph18.5 kmh 29.31 in992.6 mb - 0.00 in0.0 mm 0.00 in0.0 mm
06:00 PM 27.3°F-2.6°C 25.8°F-3.4°C 94% 4.6 mph NNE7.4 kmh NNE 9.2 mph14.8 kmh 29.31 in992.6 mb - 0.00 in0.0 mm 0.00 in0.0 mm
06:10 PM 27.4°F-2.6°C 25.9°F-3.4°C 94% 4.6 mph NNE7.4 kmh NNE 11.5 mph18.5 kmh 29.30 in992.2 mb - 0.00 in0.0 mm 0.00 in0.0 mm
06:20 PM 27.5°F-2.5°C 26.0°F-3.3°C 94% 4.6 mph NE7.4 kmh NE 11.5 mph18.5 kmh 29.30 in992.2 mb - 0.00 in0.0 mm 0.00 in0.0 mm
06:30 PM 27.5°F-2.5°C 26.0°F-3.3°C 94% 6.9 mph NE11.1 kmh NE 10.4 mph16.7 kmh 29.30 in992.2 mb - 0.00 in0.0 mm 0.00 in0.0 mm
06:40 PM 27.6°F-2.4°C 26.1°F-3.3°C 94% 3.5 mph NE5.6 kmh NE 8.1 mph13.0 kmh 29.30 in992.2 mb - 0.00 in0.0 mm 0.00 in0.0 mm
06:50 PM 27.6°F-2.4°C 26.1°F-3.3°C 94% 5.8 mph NE9.3 kmh NE 19.6 mph31.5 kmh 29.29 in991.9 mb - 0.00 in0.0 mm 0.00 in0.0 mm
07:00 PM 27.7°F-2.4°C 26.2°F-3.2°C 94% 3.5 mph NE5.6 kmh NE 6.9 mph11.1 kmh 29.29 in991.9 mb - 0.00 in0.0 mm 0.00 in0.0 mm
07:10 PM 27.7°F-2.4°C 26.2°F-3.2°C 94% 4.6 mph NNE7.4 kmh NNE 10.4 mph16.7 kmh 29.29 in991.9 mb - 0.00 in0.0 mm 0.00 in0.0 mm
07:20 PM 27.8°F-2.3°C 26.3°F-3.2°C 94% 3.5 mph NE5.6 kmh NE 10.4 mph16.7 kmh 29.28 in991.5 mb - 0.00 in0.0 mm 0.00 in0.0 mm
07:30 PM 27.8°F-2.3°C 26.3°F-3.2°C 94% 1.2 mph E1.9 kmh E 5.8 mph9.3 kmh 29.28 in991.5 mb - 0.00 in0.0 mm 0.00 in0.0 mm
07:40 PM 27.9°F-2.3°C 26.4°F-3.1°C 94% 4.6 mph NE7.4 kmh NE 12.7 mph20.4 kmh 29.28 in991.5 mb - 0.00 in0.0 mm 0.00 in0.0 mm
07:50 PM 27.9°F-2.3°C 26.4°F-3.1°C 94% 6.9 mph NE11.1 kmh NE 11.5 mph18.5 kmh 29.28 in991.5 mb - 0.00 in0.0 mm 0.00 in0.0 mm
08:10 PM 28.0°F-2.2°C 26.5°F-3.1°C 94% 9.2 mph NE14.8 kmh NE 11.5 mph18.5 kmh 29.27 in991.2 mb - 0.00 in0.0 mm 0.00 in0.0 mm
08:20 PM 28.0°F-2.2°C 26.5°F-3.1°C 94% 8.1 mph NE13.0 kmh NE 9.2 mph14.8 kmh 29.26 in990.9 mb - 0.00 in0.0 mm 0.00 in0.0 mm
08:30 PM 28.0°F-2.2°C 26.5°F-3.1°C 94% 6.9 mph E11.1 kmh E 16.1 mph25.9 kmh 29.27 in991.2 mb - 0.00 in0.0 mm 0.00 in0.0 mm
08:40 PM 28.0°F-2.2°C 26.5°F-3.1°C 94% 6.9 mph NE11.1 kmh NE 15.0 mph24.1 kmh 29.26 in990.9 mb - 0.00 in0.0 mm 0.00 in0.0 mm
08:50 PM 28.0°F-2.2°C 26.8°F-2.9°C 95% 6.9 mph E11.1 kmh E 13.8 mph22.2 kmh 29.26 in990.9 mb - 0.00 in0.0 mm 0.00 in0.0 mm
09:00 PM 28.1°F-2.2°C 26.8°F-2.9°C 95% 6.9 mph NE11.1 kmh NE 11.5 mph18.5 kmh 29.26 in990.9 mb - 0.00 in0.0 mm 0.00 in0.0 mm
09:10 PM 28.1°F-2.2°C 26.9°F-2.8°C 95% 6.9 mph E11.1 kmh E 21.9 mph35.2 kmh 29.25 in990.5 mb - 0.00 in0.0 mm 0.00 in0.0 mm
09:20 PM 28.3°F-2.1°C 27.1°F-2.7°C 95% 3.5 mph NE5.6 kmh NE 6.9 mph11.1 kmh 29.25 in990.5 mb - 0.00 in0.0 mm 0.00 in0.0 mm
09:30 PM 28.4°F-2.0°C 27.2°F-2.7°C 95% 4.6 mph NE7.4 kmh NE 11.5 mph18.5 kmh 29.25 in990.5 mb - 0.00 in0.0 mm 0.00 in0.0 mm
09:40 PM 28.6°F-1.9°C 27.4°F-2.6°C 95% 8.1 mph NE13.0 kmh NE 16.1 mph25.9 kmh 29.25 in990.5 mb - 0.00 in0.0 mm 0.00 in0.0 mm
09:50 PM 28.8°F-1.8°C 27.3°F-2.6°C 94% 5.8 mph NE9.3 kmh NE 8.1 mph13.0 kmh 29.25 in990.5 mb - 0.00 in0.0 mm 0.00 in0.0 mm
10:00 PM 29.0°F-1.7°C 27.5°F-2.5°C 94% 5.8 mph NE9.3 kmh NE 11.5 mph18.5 kmh 29.24 in990.2 mb - 0.00 in0.0 mm 0.00 in0.0 mm
10:10 PM 29.2°F-1.6°C 27.7°F-2.4°C 94% 8.1 mph NE13.0 kmh NE 11.5 mph18.5 kmh 29.24 in990.2 mb - 0.00 in0.0 mm 0.00 in0.0 mm
10:20 PM 29.3°F-1.5°C 27.8°F-2.3°C 94% 8.1 mph ENE13.0 kmh ENE 23.0 mph37.0 kmh 29.24 in990.2 mb - 0.00 in0.0 mm 0.00 in0.0 mm
10:30 PM 29.5°F-1.4°C 28.0°F-2.2°C 94% 4.6 mph ENE7.4 kmh ENE 11.5 mph18.5 kmh 29.24 in990.2 mb - 0.00 in0.0 mm 0.00 in0.0 mm
10:40 PM 29.6°F-1.3°C 28.1°F-2.2°C 94% 4.6 mph NE7.4 kmh NE 11.5 mph18.5 kmh 29.24 in990.2 mb - 0.00 in0.0 mm 0.00 in0.0 mm
10:50 PM 29.7°F-1.3°C 28.2°F-2.1°C 94% 5.8 mph ENE9.3 kmh ENE 12.7 mph20.4 kmh 29.24 in990.2 mb - 0.00 in0.0 mm 0.00 in0.0 mm
11:00 PM 29.7°F-1.3°C 28.2°F-2.1°C 94% 4.6 mph NE7.4 kmh NE 13.8 mph22.2 kmh 29.24 in990.2 mb - 0.00 in0.0 mm 0.00 in0.0 mm
11:10 PM 29.7°F-1.3°C 27.9°F-2.3°C 93% 6.9 mph NE11.1 kmh NE 11.5 mph18.5 kmh 29.24 in990.2 mb - 0.00 in0.0 mm 0.00 in0.0 mm
11:20 PM 29.7°F-1.3°C 27.9°F-2.3°C 93% 1.2 mph NE1.9 kmh NE 9.2 mph14.8 kmh 29.23 in989.8 mb - 0.00 in0.0 mm 0.00 in0.0 mm
11:30 PM 29.6°F-1.3°C 27.8°F-2.3°C 93% 5.8 mph NNE9.3 kmh NNE 5.8 mph9.3 kmh 29.24 in990.2 mb - 0.00 in0.0 mm 0.00 in0.0 mm
11:40 PM 29.6°F-1.3°C 27.8°F-2.3°C 93% 5.8 mph NE9.3 kmh NE 12.7 mph20.4 kmh 29.23 in989.8 mb - 0.00 in0.0 mm 0.00 in0.0 mm
11:50 PM 29.7°F-1.3°C 27.9°F-2.3°C 93% 5.8 mph NE9.3 kmh NE 13.8 mph22.2 kmh 29.23 in989.8 mb - 0.00 in0.0 mm 0.00 in0.0 mm